Terminal Aerodrome Forecast
Issued by NWS

Home | Current Version | Previous Version | Text Only | Print | Product List | Glossary On
Versions: 1 2 3 4 5 6 7 8 9 10 11 12 13 14 15
000
FTUS45 KPSR 191700
TAFBLH
TAF
KBLH 191720Z 1918/2018 13005KT P6SM FEW100 SCT250
     FM200300 21005KT P6SM SKC
     FM201100 VRB04KT P6SM SKC=

USA.gov is the U.S. government's official web portal to all federal, state and local government web resources and services.